TKY1905 EDAH-EGCC
Flight info
| Callsign | TKY1905 |
|---|---|
| Flight time | N/A |
| Altitude | 34000 |
| Route | MASOR1E MASOR M725 UDAXI L23 HAM M170 ELSOB DCT BEDUM DCT MIMVA L602 NALAX L46 LIBSO |
| Aircraft | A321/M-SDE3FGHIRWY/LB1 |
Departure
| Time | 2026-04-20 15:45 |
|---|---|
| Airport | Heringsdorf Airport (EDAH) |
Arrival
| Time | N/A |
|---|---|
| Airport | Manchester Airport (EGCC) |
| Time | Latitude | Longitude | Altitude | Speed | Heading |
|---|---|---|---|---|---|
| 2026-04-20 15:35 | 53.87907 | 14.13915 | 72 ft | 0 kts | 300° |
| 2026-04-20 15:40 | 53.87905 | 14.13920 | 44 ft | 2 kts | 300° |
| 2026-04-20 15:40 | 53.87901 | 14.13932 | 66 ft | 2 kts | 300° |
| 2026-04-20 15:41 | 53.87935 | 14.13892 | 61 ft | 11 kts | 342° |
| 2026-04-20 15:41 | 53.88019 | 14.13882 | 70 ft | 0 kts | 358° |
| 2026-04-20 15:43 | 53.88020 | 14.13882 | 71 ft | 2 kts | 358° |
| 2026-04-20 15:44 | 53.88056 | 14.13888 | 71 ft | 8 kts | 19° |
| 2026-04-20 15:44 | 53.88080 | 14.14003 | 71 ft | 14 kts | 101° |
| 2026-04-20 15:44 | 53.88036 | 14.14230 | 71 ft | 40 kts | 107° |
| 2026-04-20 15:44 | 53.87891 | 14.15144 | 74 ft | 117 kts | 105° |
| 2026-04-20 15:45 | 53.87659 | 14.16782 | 426 ft | 142 kts | 99° |
| 2026-04-20 15:45 | 53.87401 | 14.18320 | 1487 ft | 134 kts | 98° |
| 2026-04-20 15:45 | 53.87152 | 14.19837 | 2170 ft | 135 kts | 100° |
| 2026-04-20 15:45 | 53.86881 | 14.21485 | 2509 ft | 156 kts | 99° |
| 2026-04-20 15:46 | 53.86574 | 14.23345 | 2869 ft | 169 kts | 101° |
| 2026-04-20 15:46 | 53.86251 | 14.25282 | 3351 ft | 173 kts | 101° |
| 2026-04-20 15:46 | 53.85920 | 14.27249 | 3852 ft | 175 kts | 102° |
| 2026-04-20 15:46 | 53.85564 | 14.29249 | 4375 ft | 180 kts | 108° |
| 2026-04-20 15:47 | 53.84659 | 14.30768 | 4859 ft | 198 kts | 154° |
| 2026-04-20 15:47 | 53.83240 | 14.30790 | 5333 ft | 213 kts | 188° |
| 2026-04-20 15:47 | 53.81803 | 14.30126 | 5835 ft | 216 kts | 191° |
| 2026-04-20 15:47 | 53.80353 | 14.29367 | 6269 ft | 224 kts | 199° |
| 2026-04-20 15:48 | 53.79065 | 14.27669 | 6404 ft | 251 kts | 234° |
| 2026-04-20 15:48 | 53.78489 | 14.24789 | 6592 ft | 273 kts | 267° |
| 2026-04-20 15:48 | 53.78343 | 14.21471 | 6982 ft | 290 kts | 268° |
| 2026-04-20 15:48 | 53.78219 | 14.18037 | 7663 ft | 296 kts | 268° |
| 2026-04-20 15:49 | 53.78094 | 14.14491 | 8403 ft | 300 kts | 268° |
| 2026-04-20 15:49 | 53.77966 | 14.10949 | 9174 ft | 304 kts | 268° |
| 2026-04-20 15:49 | 53.77831 | 14.07364 | 9908 ft | 308 kts | 268° |
| 2026-04-20 15:49 | 53.77688 | 14.03717 | 10484 ft | 318 kts | 267° |
| 2026-04-20 15:50 | 53.77529 | 13.99807 | 10652 ft | 341 kts | 267° |
| 2026-04-20 15:50 | 53.77355 | 13.95669 | 10790 ft | 364 kts | 267° |
| 2026-04-20 15:50 | 53.77167 | 13.91274 | 10915 ft | 386 kts | 267° |
| 2026-04-20 15:50 | 53.76968 | 13.86671 | 11291 ft | 397 kts | 267° |
| 2026-04-20 15:51 | 53.76763 | 13.81993 | 11919 ft | 402 kts | 267° |
| 2026-04-20 15:51 | 53.76552 | 13.77260 | 12547 ft | 405 kts | 267° |
| 2026-04-20 15:51 | 53.76342 | 13.72499 | 13188 ft | 409 kts | 267° |
| 2026-04-20 15:51 | 53.76174 | 13.67677 | 13817 ft | 412 kts | 269° |
| 2026-04-20 15:52 | 53.76119 | 13.62815 | 14388 ft | 415 kts | 271° |
| 2026-04-20 15:52 | 53.76140 | 13.57922 | 14947 ft | 418 kts | 272° |
| 2026-04-20 15:52 | 53.76187 | 13.53001 | 15499 ft | 421 kts | 272° |
| 2026-04-20 15:53 | 53.76189 | 13.43039 | 16598 ft | 427 kts | 271° |
| 2026-04-20 15:53 | 53.76145 | 13.38013 | 17139 ft | 430 kts | 270° |
| 2026-04-20 15:53 | 53.76083 | 13.32872 | 17677 ft | 433 kts | 270° |
| 2026-04-20 15:53 | 53.76017 | 13.27838 | 18201 ft | 436 kts | 270° |
| 2026-04-20 15:54 | 53.75943 | 13.22641 | 18688 ft | 439 kts | 270° |
| 2026-04-20 15:54 | 53.75871 | 13.17471 | 19137 ft | 442 kts | 270° |
| 2026-04-20 15:54 | 53.75803 | 13.12268 | 19575 ft | 445 kts | 270° |
| 2026-04-20 15:54 | 53.75736 | 13.07016 | 20009 ft | 448 kts | 270° |
| 2026-04-20 15:55 | 53.75670 | 13.01737 | 20449 ft | 451 kts | 270° |
| 2026-04-20 15:55 | 53.75600 | 12.96419 | 20893 ft | 454 kts | 270° |
| 2026-04-20 15:55 | 53.75527 | 12.91065 | 21322 ft | 457 kts | 270° |
| 2026-04-20 15:55 | 53.75448 | 12.85676 | 21749 ft | 461 kts | 270° |
| 2026-04-20 15:56 | 53.75364 | 12.80253 | 22164 ft | 464 kts | 270° |
| 2026-04-20 15:56 | 53.75276 | 12.74712 | 22593 ft | 467 kts | 270° |
| 2026-04-20 15:56 | 53.75196 | 12.69209 | 22996 ft | 470 kts | 270° |
| 2026-04-20 15:56 | 53.75123 | 12.63666 | 23406 ft | 473 kts | 270° |
| 2026-04-20 15:57 | 53.75051 | 12.58097 | 23792 ft | 476 kts | 270° |
| 2026-04-20 15:57 | 53.74974 | 12.52486 | 24129 ft | 479 kts | 270° |
| 2026-04-20 15:57 | 53.74892 | 12.46765 | 24488 ft | 481 kts | 270° |
| 2026-04-20 15:57 | 53.74798 | 12.41117 | 24843 ft | 482 kts | 269° |
| 2026-04-20 15:58 | 53.74682 | 12.35442 | 25206 ft | 484 kts | 269° |
| 2026-04-20 15:58 | 53.74551 | 12.29652 | 25574 ft | 486 kts | 269° |
| 2026-04-20 15:58 | 53.74411 | 12.23795 | 25937 ft | 488 kts | 269° |
| 2026-04-20 15:58 | 53.74271 | 12.18069 | 26267 ft | 490 kts | 269° |
| 2026-04-20 15:59 | 53.74131 | 12.12308 | 26641 ft | 490 kts | 269° |
| 2026-04-20 15:59 | 53.73997 | 12.06488 | 27131 ft | 488 kts | 269° |
| 2026-04-20 15:59 | 53.73875 | 12.00777 | 27601 ft | 486 kts | 269° |
| 2026-04-20 15:59 | 53.73752 | 11.95088 | 28065 ft | 484 kts | 269° |
| 2026-04-20 16:00 | 53.73623 | 11.89328 | 28521 ft | 483 kts | 269° |
| 2026-04-20 16:00 | 53.73489 | 11.83675 | 28972 ft | 481 kts | 269° |
| 2026-04-20 16:00 | 53.73356 | 11.77959 | 29434 ft | 480 kts | 269° |
| 2026-04-20 16:00 | 53.73228 | 11.72341 | 29863 ft | 479 kts | 269° |
| 2026-04-20 16:01 | 53.73142 | 11.68622 | 30156 ft | 478 kts | 269° |
| 2026-04-20 16:01 | 53.73011 | 11.62951 | 30537 ft | 477 kts | 269° |
| 2026-04-20 16:01 | 53.72878 | 11.57281 | 30903 ft | 476 kts | 269° |
| 2026-04-20 16:01 | 53.72743 | 11.51709 | 31246 ft | 475 kts | 269° |
| 2026-04-20 16:02 | 53.72606 | 11.46136 | 31589 ft | 475 kts | 269° |
| 2026-04-20 16:02 | 53.72458 | 11.40493 | 31931 ft | 474 kts | 269° |
| 2026-04-20 16:02 | 53.72301 | 11.34937 | 32274 ft | 474 kts | 269° |
| 2026-04-20 16:02 | 53.72138 | 11.29380 | 32609 ft | 473 kts | 268° |
| 2026-04-20 16:03 | 53.71976 | 11.23841 | 32918 ft | 473 kts | 268° |
| 2026-04-20 16:03 | 53.71815 | 11.18290 | 33238 ft | 473 kts | 269° |
| 2026-04-20 16:03 | 53.71653 | 11.12747 | 33559 ft | 473 kts | 269° |
| 2026-04-20 16:03 | 53.71491 | 11.07205 | 33887 ft | 473 kts | 268° |
| 2026-04-20 16:04 | 53.71323 | 11.01657 | 34157 ft | 473 kts | 268° |
| 2026-04-20 16:04 | 53.71152 | 10.96126 | 34215 ft | 472 kts | 268° |
| 2026-04-20 16:04 | 53.70806 | 10.85064 | 34219 ft | 471 kts | 268° |
| 2026-04-20 16:05 | 53.70447 | 10.74034 | 34221 ft | 471 kts | 268° |
| 2026-04-20 16:05 | 53.70076 | 10.62929 | 34215 ft | 471 kts | 268° |
| 2026-04-20 16:06 | 53.69699 | 10.51892 | 34213 ft | 470 kts | 268° |
| 2026-04-20 16:06 | 53.69292 | 10.40311 | 34210 ft | 470 kts | 268° |
| 2026-04-20 16:07 | 53.68893 | 10.29289 | 34217 ft | 470 kts | 267° |
| 2026-04-20 16:07 | 53.68475 | 10.18288 | 34222 ft | 469 kts | 267° |
| 2026-04-20 16:08 | 53.67948 | 10.07255 | 34228 ft | 469 kts | 266° |
| 2026-04-20 16:08 | 53.67341 | 9.96287 | 34229 ft | 468 kts | 265° |
| 2026-04-20 16:09 | 53.66742 | 9.85331 | 34233 ft | 467 kts | 265° |
| 2026-04-20 16:09 | 53.66158 | 9.74437 | 34230 ft | 466 kts | 265° |
| 2026-04-20 16:10 | 53.65572 | 9.63569 | 34227 ft | 465 kts | 266° |
| 2026-04-20 16:10 | 53.64897 | 9.52722 | 34229 ft | 465 kts | 263° |
| 2026-04-20 16:11 | 53.63942 | 9.41965 | 34232 ft | 464 kts | 261° |
| 2026-04-20 16:11 | 53.62875 | 9.31198 | 34229 ft | 463 kts | 261° |
| 2026-04-20 16:12 | 53.61862 | 9.20539 | 34226 ft | 462 kts | 262° |
| 2026-04-20 16:12 | 53.60883 | 9.09812 | 34228 ft | 461 kts | 262° |
| 2026-04-20 16:13 | 53.59910 | 8.99150 | 34221 ft | 460 kts | 262° |
| 2026-04-20 16:13 | 53.58906 | 8.88505 | 34219 ft | 460 kts | 262° |
| 2026-04-20 16:14 | 53.57884 | 8.77893 | 34217 ft | 459 kts | 262° |
| 2026-04-20 16:14 | 53.56855 | 8.67218 | 34214 ft | 459 kts | 262° |
| 2026-04-20 16:15 | 53.55833 | 8.56620 | 34211 ft | 459 kts | 262° |
| 2026-04-20 16:15 | 53.54973 | 8.47822 | 34207 ft | 459 kts | 261° |
| 2026-04-20 16:16 | 53.53919 | 8.37158 | 34207 ft | 459 kts | 261° |
| 2026-04-20 16:16 | 53.52856 | 8.26572 | 34202 ft | 459 kts | 261° |
| 2026-04-20 16:17 | 53.51788 | 8.15994 | 34204 ft | 459 kts | 261° |
| 2026-04-20 16:17 | 53.50719 | 8.05419 | 34211 ft | 459 kts | 261° |
| 2026-04-20 16:18 | 53.49641 | 7.94854 | 34220 ft | 459 kts | 261° |
| 2026-04-20 16:18 | 53.48535 | 7.84225 | 34229 ft | 459 kts | 260° |
| 2026-04-20 16:19 | 53.47430 | 7.73690 | 34237 ft | 458 kts | 260° |
| 2026-04-20 16:19 | 53.46324 | 7.63181 | 34239 ft | 457 kts | 260° |
| 2026-04-20 16:20 | 53.45213 | 7.52667 | 34237 ft | 457 kts | 260° |
| 2026-04-20 16:20 | 53.44086 | 7.42199 | 34263 ft | 456 kts | 260° |
| 2026-04-20 16:21 | 53.42954 | 7.31746 | 34266 ft | 455 kts | 260° |
| 2026-04-20 16:21 | 53.41801 | 7.21180 | 34266 ft | 454 kts | 260° |
| 2026-04-20 16:22 | 53.40658 | 7.10777 | 34265 ft | 454 kts | 260° |
| 2026-04-20 16:22 | 53.39507 | 7.00392 | 34263 ft | 453 kts | 259° |
| 2026-04-20 16:23 | 53.38350 | 6.90033 | 34258 ft | 452 kts | 260° |
| 2026-04-20 16:23 | 53.37188 | 6.79694 | 34258 ft | 452 kts | 260° |
| 2026-04-20 16:24 | 53.36014 | 6.69376 | 34259 ft | 451 kts | 259° |
| 2026-04-20 16:24 | 53.34834 | 6.58988 | 34261 ft | 451 kts | 262° |
| 2026-04-20 16:25 | 53.34168 | 6.48567 | 34259 ft | 450 kts | 265° |
| 2026-04-20 16:25 | 53.33531 | 6.38162 | 34263 ft | 449 kts | 265° |
| 2026-04-20 16:26 | 53.32875 | 6.27773 | 34267 ft | 449 kts | 265° |
| 2026-04-20 16:26 | 53.32200 | 6.17394 | 34278 ft | 449 kts | 264° |
| 2026-04-20 16:27 | 53.31526 | 6.07022 | 34285 ft | 448 kts | 264° |
| 2026-04-20 16:27 | 53.30846 | 5.96661 | 34289 ft | 448 kts | 264° |
| 2026-04-20 16:28 | 53.30151 | 5.86323 | 34292 ft | 447 kts | 265° |
| 2026-04-20 16:28 | 53.29448 | 5.76004 | 34291 ft | 447 kts | 264° |
| 2026-04-20 16:29 | 53.28747 | 5.65707 | 34292 ft | 446 kts | 265° |
| 2026-04-20 16:29 | 53.28035 | 5.55424 | 34284 ft | 445 kts | 264° |
| 2026-04-20 16:30 | 53.27309 | 5.45156 | 34279 ft | 445 kts | 264° |
| 2026-04-20 16:30 | 53.26570 | 5.34809 | 34272 ft | 445 kts | 264° |
| 2026-04-20 16:31 | 53.25831 | 5.24557 | 34264 ft | 445 kts | 264° |
| 2026-04-20 16:31 | 53.25082 | 5.14307 | 34259 ft | 445 kts | 264° |
| 2026-04-20 16:32 | 53.24323 | 5.04052 | 34260 ft | 445 kts | 264° |
| 2026-04-20 16:32 | 53.23560 | 4.93804 | 34270 ft | 445 kts | 264° |
| 2026-04-20 16:33 | 53.22783 | 4.83565 | 34269 ft | 445 kts | 264° |
| 2026-04-20 16:33 | 53.21996 | 4.73329 | 34272 ft | 444 kts | 264° |
| 2026-04-20 16:34 | 53.21202 | 4.63115 | 34272 ft | 444 kts | 264° |
| 2026-04-20 16:34 | 53.20404 | 4.52912 | 34276 ft | 443 kts | 264° |
| 2026-04-20 16:35 | 53.19593 | 4.42725 | 34275 ft | 443 kts | 264° |
| 2026-04-20 16:35 | 53.18776 | 4.32538 | 34276 ft | 443 kts | 264° |
| 2026-04-20 16:36 | 53.17960 | 4.22368 | 34281 ft | 443 kts | 264° |
| 2026-04-20 16:36 | 53.17130 | 4.12198 | 34285 ft | 443 kts | 264° |
| 2026-04-20 16:37 | 53.16284 | 4.02047 | 34284 ft | 442 kts | 263° |
| 2026-04-20 16:37 | 53.15426 | 3.91860 | 34281 ft | 441 kts | 263° |
| 2026-04-20 16:38 | 53.14574 | 3.81777 | 34285 ft | 440 kts | 264° |
| 2026-04-20 16:38 | 53.14370 | 3.71660 | 34282 ft | 436 kts | 282° |
| 2026-04-20 16:39 | 53.15562 | 3.61703 | 34281 ft | 435 kts | 282° |
| 2026-04-20 16:39 | 53.16557 | 3.53465 | 34278 ft | 435 kts | 282° |
| 2026-04-20 16:40 | 53.17765 | 3.43471 | 34277 ft | 435 kts | 282° |
| 2026-04-20 16:40 | 53.18946 | 3.33580 | 34277 ft | 435 kts | 282° |
| 2026-04-20 16:41 | 53.20116 | 3.23614 | 34276 ft | 435 kts | 282° |
| 2026-04-20 16:41 | 53.21262 | 3.13728 | 34279 ft | 434 kts | 282° |
| 2026-04-20 16:42 | 53.22403 | 3.03838 | 34288 ft | 434 kts | 282° |
| 2026-04-20 16:42 | 53.23537 | 2.93956 | 34296 ft | 433 kts | 282° |
| 2026-04-20 16:43 | 53.24652 | 2.84072 | 34292 ft | 433 kts | 282° |
| 2026-04-20 16:43 | 53.25769 | 2.74197 | 34298 ft | 433 kts | 282° |
| 2026-04-20 16:44 | 53.26880 | 2.64322 | 34295 ft | 432 kts | 282° |
| 2026-04-20 16:44 | 53.27980 | 2.54462 | 34295 ft | 432 kts | 282° |
| 2026-04-20 16:45 | 53.29071 | 2.44593 | 34301 ft | 431 kts | 282° |
| 2026-04-20 16:45 | 53.30151 | 2.34736 | 34299 ft | 431 kts | 282° |
| 2026-04-20 16:46 | 53.31226 | 2.24812 | 34299 ft | 431 kts | 282° |
| 2026-04-20 16:46 | 53.32289 | 2.14963 | 34302 ft | 430 kts | 282° |
| 2026-04-20 16:47 | 53.33341 | 2.05115 | 34310 ft | 430 kts | 282° |
| 2026-04-20 16:47 | 53.34384 | 1.95270 | 34307 ft | 429 kts | 282° |
| 2026-04-20 16:48 | 53.35417 | 1.85435 | 34316 ft | 429 kts | 282° |
| 2026-04-20 16:48 | 53.36440 | 1.75603 | 34311 ft | 428 kts | 282° |
| 2026-04-20 16:49 | 53.37461 | 1.65782 | 34315 ft | 428 kts | 282° |
| 2026-04-20 16:49 | 53.38472 | 1.55973 | 34313 ft | 427 kts | 282° |
| 2026-04-20 16:50 | 53.39467 | 1.46161 | 34319 ft | 427 kts | 281° |
| 2026-04-20 16:50 | 53.40449 | 1.36360 | 34318 ft | 426 kts | 281° |
| 2026-04-20 16:51 | 53.41429 | 1.26577 | 34317 ft | 425 kts | 281° |
| 2026-04-20 16:51 | 53.42401 | 1.16803 | 34320 ft | 425 kts | 281° |
| 2026-04-20 16:52 | 53.43368 | 1.07037 | 34317 ft | 424 kts | 281° |
| 2026-04-20 16:52 | 53.44318 | 0.97212 | 34321 ft | 424 kts | 281° |
| 2026-04-20 16:53 | 53.45254 | 0.87460 | 34323 ft | 423 kts | 281° |
| 2026-04-20 16:53 | 53.46186 | 0.77725 | 34320 ft | 422 kts | 281° |
| 2026-04-20 16:54 | 53.46653 | 0.72849 | 34148 ft | 422 kts | 281° |
| 2026-04-20 16:54 | 53.47115 | 0.67995 | 33873 ft | 421 kts | 281° |
| 2026-04-20 16:54 | 53.47575 | 0.63136 | 33605 ft | 421 kts | 281° |
| 2026-04-20 16:54 | 53.48030 | 0.58281 | 33129 ft | 420 kts | 281° |
| 2026-04-20 16:55 | 53.48481 | 0.53439 | 32405 ft | 420 kts | 281° |
| 2026-04-20 16:55 | 53.48930 | 0.48584 | 31803 ft | 419 kts | 281° |
| 2026-04-20 16:55 | 53.49379 | 0.43687 | 31582 ft | 420 kts | 281° |
| 2026-04-20 16:55 | 53.49824 | 0.38825 | 31142 ft | 422 kts | 282° |
| 2026-04-20 16:56 | 53.50271 | 0.33949 | 30701 ft | 423 kts | 282° |
| 2026-04-20 16:56 | 53.50715 | 0.29071 | 30209 ft | 423 kts | 282° |
| 2026-04-20 16:56 | 53.51159 | 0.24180 | 29657 ft | 424 kts | 282° |
| 2026-04-20 16:56 | 53.51600 | 0.19274 | 29114 ft | 424 kts | 281° |